METAR Formatted Surface Weather Observation
Issued by NWS Raleigh/Durham, NC

Home | Current Version | Previous Version | Text Only | Print | Product List | Glossary On
Versions: 1 2 3 4 5 6
000
SAUS42 KRAH 200752
MTRRDU
METAR KRDU 200751Z 00000KT 8SM BCFG FEW001 SCT250 22/21 A2991 RMK
AO2 SLP123 T02170206 $



USA.gov is the U.S. government's official web portal to all federal, state and local government web resources and services.